Weather at Luna Work Center Heliport

Public forecast

Using degrees Fahrenheit for public forecast. Weather courtesy of forecast.io.

Closest aviation weather report (METAR) to Luna Work Center Heliport

Closest report is St Johns Industrial Air Park, 47.1 nm (87.2 km) NNW. Retrieved 2022/01/22 19:54 UTC (33 minutes ago):

KSJN 221954Z AUTO 13018G25KT 10SM BKN070 OVC090 09/M04 A3010 RMK AO2 PK WND 11027/1924 SLP181 T00891044

Closest aviation forecast (TAF) to Luna Work Center Heliport

Closest forecast is Truth or Consequences Municipal Airport, 90.7 nm (167.9 km) ESE. Retrieved 2022/01/22 18:27 UTC (2 hours ago):

TAF KTCS 221724Z 2218/2318 03015G25KT P6SM BKN060 FM222300 07008KT P6SM SCT250 FM230300 35007KT P6SM BKN250